Time;durP1;ratioP1;P1;durP2;ratioP2;P2;SDS_P1;SDS_P2;PMS_P1;PMS_P2;Temp;Humidity;BMP_temperature;BMP_pressure;BME280_temperature;BME280_humidity;BME280_pressure;Samples;Min_cycle;Max_cycle;Signal;HPM_P1;HPM_P2
2023/07/31 04:02:29;;;;;;;0.60;0.10;;;19.00;19.50;;;;;;5119020;22;20496;-72
2023/07/31 04:04:57;;;;;;;0.60;0.20;;;19.00;20.70;;;;;;5036594;28;20470;-74
2023/07/31 04:07:24;;;;;;;0.60;0.20;;;19.00;21.20;;;;;;5040016;28;20530;-73
2023/07/31 04:09:52;;;;;;;0.60;0.20;;;18.90;21.00;;;;;;5041411;28;20538;-73
2023/07/31 04:12:20;;;;;;;1.17;0.30;;;19.00;21.20;;;;;;5041006;28;20466;-74
2023/07/31 04:14:48;;;;;;;0.70;0.30;;;19.00;21.20;;;;;;5035178;28;20864;-74
2023/07/31 04:17:16;;;;;;;0.90;0.30;;;19.00;20.00;;;;;;5034835;28;20946;-75
2023/07/31 04:19:45;;;;;;;1.83;0.30;;;19.00;22.40;;;;;;5035261;28;20479;-75
2023/07/31 04:22:15;;;;;;;3.33;1.27;;;;;;;;;;5061487;22;20480;-89
2023/07/31 04:24:53;;;;;;;0.60;0.10;;;19.20;20.40;;;;;;5052117;28;20469;-71
2023/07/31 04:27:21;;;;;;;3.70;0.97;;;19.20;28.80;;;;;;5053518;28;20532;-72
2023/07/31 04:29:48;;;;;;;0.93;0.50;;;19.00;20.30;;;;;;5054419;28;20489;-71
2023/07/31 04:32:17;;;;;;;0.60;0.10;;;19.00;21.30;;;;;;5058507;28;20481;-71
2023/07/31 04:34:46;;;;;;;1.83;0.57;;;19.10;20.20;;;;;;5070408;28;20437;-72
2023/07/31 04:37:14;;;;;;;0.60;0.10;;;19.00;20.20;;;;;;5063522;28;20448;-71
2023/07/31 04:39:42;;;;;;;1.70;1.13;;;18.90;20.90;;;;;;5073134;28;20547;-70
2023/07/31 04:42:10;;;;;;;0.80;0.40;;;19.00;22.90;;;;;;5073982;28;20808;-72
2023/07/31 04:44:38;;;;;;;0.60;0.10;;;19.00;22.20;;;;;;5071895;28;20453;-70
2023/07/31 04:47:06;;;;;;;1.13;0.37;;;19.00;30.50;;;;;;5072369;28;20479;-73
2023/07/31 04:49:34;;;;;;;0.60;0.20;;;19.20;21.70;;;;;;5070820;28;20434;-73
2023/07/31 04:52:04;;;;;;;0.60;0.20;;;19.20;20.40;;;;;;5073423;28;20492;-72
2023/07/31 04:54:32;;;;;;;0.70;0.30;;;19.20;28.20;;;;;;5072852;28;20437;-71
2023/07/31 04:57:00;;;;;;;0.60;0.30;;;19.30;28.40;;;;;;5072943;28;20460;-73
2023/07/31 04:59:27;;;;;;;0.60;0.10;;;19.30;27.20;;;;;;5073481;28;21084;-73
2023/07/31 05:01:55;;;;;;;1.10;0.43;;;19.30;19.10;;;;;;5073784;28;20448;-78
2023/07/31 05:04:23;;;;;;;0.60;0.20;;;19.30;18.90;;;;;;5073653;28;20469;-71
2023/07/31 05:06:51;;;;;;;0.60;0.20;;;19.40;19.20;;;;;;5079006;28;20458;-72
2023/07/31 05:09:20;;;;;;;1.90;1.17;;;19.40;17.60;;;;;;5086519;28;20537;-71
2023/07/31 05:11:48;;;;;;;1.87;0.50;;;19.40;18.50;;;;;;5069854;28;20445;-71
2023/07/31 05:14:16;;;;;;;1.73;0.40;;;19.40;17.60;;;;;;5073432;28;20458;-71
2023/07/31 05:16:44;;;;;;;0.60;0.20;;;19.40;18.10;;;;;;5073013;28;20433;-73
2023/07/31 05:19:12;;;;;;;0.60;0.10;;;19.40;26.00;;;;;;5073773;28;20477;-76
2023/07/31 05:21:40;;;;;;;0.60;0.10;;;19.50;18.60;;;;;;5073563;28;20895;-71
2023/07/31 05:24:08;;;;;;;0.70;0.33;;;19.30;17.70;;;;;;5073724;28;20544;-71
2023/07/31 05:26:37;;;;;;;0.90;0.30;;;19.00;20.60;;;;;;5073676;28;20533;-72
2023/07/31 05:29:06;;;;;;;0.60;0.20;;;19.10;23.20;;;;;;5076036;28;20445;-74
2023/07/31 05:31:34;;;;;;;2.60;0.87;;;18.90;22.80;;;;;;5072573;28;20503;-73
2023/07/31 05:34:01;;;;;;;0.70;0.40;;;18.80;23.30;;;;;;5057144;28;20494;-76
2023/07/31 05:36:30;;;;;;;0.60;0.13;;;18.80;25.90;;;;;;5057686;28;20446;-73
2023/07/31 05:38:57;;;;;;;0.60;0.10;;;18.90;27.30;;;;;;5070723;28;20484;-74
2023/07/31 05:41:25;;;;;;;0.60;0.20;;;18.90;37.20;;;;;;5074461;28;20473;-73
2023/07/31 05:43:54;;;;;;;0.70;0.60;;;19.00;25.20;;;;;;5072781;28;20518;-73
2023/07/31 05:46:22;;;;;;;0.60;0.10;;;19.10;25.90;;;;;;5072831;28;20441;-71
2023/07/31 05:48:50;;;;;;;0.60;0.20;;;20.30;25.60;;;;;;5072822;28;20450;-72
2023/07/31 05:51:18;;;;;;;0.60;0.10;;;19.00;28.60;;;;;;5072036;28;20945;-70
2023/07/31 05:53:46;;;;;;;1.27;1.17;;;19.10;29.50;;;;;;5073343;28;20471;-72
2023/07/31 05:56:13;;;;;;;0.60;0.10;;;19.10;29.30;;;;;;5072138;28;20480;-72
2023/07/31 05:58:41;;;;;;;0.80;0.50;;;19.00;39.80;;;;;;5072795;28;20444;-74
2023/07/31 06:01:11;;;;;;;0.70;0.40;;;19.00;27.40;;;;;;5073222;28;20476;-73
2023/07/31 06:03:38;;;;;;;0.60;0.20;;;19.00;26.70;;;;;;5065802;28;20513;-73
2023/07/31 06:06:07;;;;;;;0.60;0.20;;;19.10;27.40;;;;;;5052478;28;20448;-72
2023/07/31 06:08:34;;;;;;;0.60;0.20;;;19.10;27.20;;;;;;5053022;28;21043;-72
2023/07/31 06:11:02;;;;;;;0.90;0.70;;;19.10;25.80;;;;;;5052711;28;20476;-72
2023/07/31 06:13:30;;;;;;;0.80;0.50;;;19.10;27.00;;;;;;5057439;28;20465;-73
2023/07/31 06:15:59;;;;;;;0.97;0.60;;;;;;;;;;5092570;28;20531;-74
2023/07/31 06:18:28;;;;;;;0.60;0.10;;;18.90;27.70;;;;;;5092948;28;20453;-72
2023/07/31 06:20:56;;;;;;;2.10;0.93;;;18.90;38.50;;;;;;5092348;28;20513;-72
2023/07/31 06:23:24;;;;;;;1.00;0.30;;;19.10;28.40;;;;;;5092136;28;20472;-73
2023/07/31 06:25:52;;;;;;;2.47;0.73;;;19.10;25.80;;;;;;5094487;28;20469;-72
2023/07/31 06:28:19;;;;;;;0.60;0.20;;;19.00;25.70;;;;;;5087891;28;20452;-73
2023/07/31 06:30:47;;;;;;;8.33;1.60;;;19.00;25.30;;;;;;5057952;28;20979;-71
2023/07/31 06:33:15;;;;;;;1.37;0.80;;;19.00;24.90;;;;;;5051986;28;20470;-72
2023/07/31 06:35:45;;;;;;;0.80;0.30;;;19.00;26.00;;;;;;5063922;28;20812;-73
2023/07/31 06:38:13;;;;;;;5.23;1.43;;;19.10;26.00;;;;;;5096603;28;20468;-74
2023/07/31 06:40:41;;;;;;;0.80;0.60;;;19.10;24.80;;;;;;5084415;28;20479;-75
2023/07/31 06:43:09;;;;;;;1.00;0.50;;;19.20;24.40;;;;;;5081178;28;20540;-74
2023/07/31 06:45:37;;;;;;;0.60;0.10;;;19.00;24.20;;;;;;5081442;28;20535;-74
2023/07/31 06:48:05;;;;;;;0.80;0.20;;;19.80;33.80;;;;;;5065066;28;21025;-72
2023/07/31 06:50:33;;;;;;;1.63;0.57;;;18.90;24.10;;;;;;5053758;28;20471;-72
2023/07/31 06:53:03;;;;;;;5.10;1.43;;;19.00;25.10;;;;;;5051716;28;20546;-73
2023/07/31 06:55:31;;;;;;;0.80;0.73;;;19.00;26.90;;;;;;5054956;28;20452;-74
2023/07/31 06:57:58;;;;;;;3.97;1.10;;;19.00;24.40;;;;;;5077954;28;20544;-72
2023/07/31 07:00:26;;;;;;;0.80;0.20;;;19.20;27.20;;;;;;5091781;28;20568;-74
2023/07/31 07:02:54;;;;;;;0.60;0.20;;;19.40;25.50;;;;;;5079265;28;20479;-73
2023/07/31 07:05:22;;;;;;;0.70;0.30;;;19.40;34.00;;;;;;5072696;28;20457;-73
2023/07/31 07:07:51;;;;;;;1.10;0.83;;;19.50;31.00;;;;;;5073638;28;20838;-74
2023/07/31 07:10:21;;;;;;;1.27;0.67;;;19.30;22.10;;;;;;5072180;28;20488;-74
2023/07/31 07:12:49;;;;;;;2.00;0.60;;;;;;;;;;5069467;28;20486;-74
2023/07/31 07:15:17;;;;;;;1.03;0.93;;;19.40;22.10;;;;;;5062686;28;20448;-74
2023/07/31 07:17:45;;;;;;;3.67;1.33;;;19.30;21.10;;;;;;5086823;28;20528;-74
2023/07/31 07:20:13;;;;;;;1.33;0.83;;;19.10;23.30;;;;;;5077923;28;20457;-72
2023/07/31 07:22:42;;;;;;;1.07;0.53;;;19.10;22.40;;;;;;5088176;28;20509;-73
2023/07/31 07:25:10;;;;;;;2.30;2.10;;;19.20;24.00;;;;;;5072949;28;20964;-71
2023/07/31 07:27:39;;;;;;;0.60;0.20;;;19.20;33.60;;;;;;5073980;28;20506;-71
2023/07/31 07:30:08;;;;;;;2.50;1.37;;;19.50;23.70;;;;;;5082904;28;20516;-69
2023/07/31 07:32:36;;;;;;;0.70;0.20;;;19.70;24.20;;;;;;5084066;28;21122;-72
2023/07/31 07:35:05;;;;;;;0.60;0.10;;;19.90;21.90;;;;;;5086992;28;21815;-73
2023/07/31 07:37:33;;;;;;;0.60;0.10;;;20.00;23.10;;;;;;5079878;28;20476;-72
2023/07/31 07:40:01;;;;;;;2.20;0.57;;;20.10;20.20;;;;;;5091599;28;20477;-73
2023/07/31 07:42:29;;;;;;;0.60;0.10;;;20.20;22.40;;;;;;5091020;28;20573;-73
2023/07/31 07:44:58;;;;;;;2.10;0.83;;;20.30;18.40;;;;;;5071857;28;20472;-72
2023/07/31 07:47:26;;;;;;;0.70;0.40;;;20.40;22.60;;;;;;5075872;28;20473;-72
2023/07/31 07:49:56;;;;;;;1.33;0.33;;;20.50;20.30;;;;;;5071332;28;20441;-73
2023/07/31 07:52:24;;;;;;;0.60;0.20;;;20.50;20.00;;;;;;5080430;28;20802;-72
2023/07/31 07:54:52;;;;;;;0.70;0.67;;;20.60;19.90;;;;;;5067761;28;20493;-72
2023/07/31 07:57:19;;;;;;;0.60;0.17;;;20.50;18.60;;;;;;5069015;28;20445;-72
2023/07/31 07:59:47;;;;;;;1.23;0.83;;;20.50;20.00;;;;;;5068733;28;20437;-69
2023/07/31 08:02:16;;;;;;;9.53;1.57;;;20.50;19.90;;;;;;5068835;28;20477;-72
2023/07/31 08:04:44;;;;;;;1.33;0.90;;;20.40;19.80;;;;;;5062687;28;21875;-75
2023/07/31 08:07:12;;;;;;;0.83;0.30;;;20.40;20.90;;;;;;5054339;28;20539;-72
2023/07/31 08:09:41;;;;;;;1.57;1.27;;;20.40;20.30;;;;;;5063042;28;20532;-73
2023/07/31 08:12:09;;;;;;;0.70;0.30;;;20.20;19.70;;;;;;5066472;28;20548;-72
2023/07/31 08:14:37;;;;;;;0.80;0.30;;;20.20;21.80;;;;;;5062192;28;20568;-72
2023/07/31 08:17:05;;;;;;;1.57;0.70;;;20.10;21.30;;;;;;5074079;28;20446;-74
2023/07/31 08:19:34;;;;;;;1.33;0.63;;;20.00;23.40;;;;;;5070224;28;20544;-73
2023/07/31 08:22:02;;;;;;;0.60;0.10;;;19.90;24.60;;;;;;5070289;28;20853;-74
2023/07/31 08:24:30;;;;;;;0.90;0.73;;;23.60;27.20;;;;;;5064027;28;20488;-75
2023/07/31 08:26:58;;;;;;;0.60;0.30;;;;;;;;;;5071736;28;20440;-74
2023/07/31 08:29:26;;;;;;;0.60;0.20;;;20.20;26.00;;;;;;5082172;28;20472;-77
2023/07/31 08:31:54;;;;;;;0.70;0.40;;;20.30;27.20;;;;;;5076457;28;21179;-74
2023/07/31 08:34:23;;;;;;;24.20;2.20;;;;;;;;;;5071669;28;20489;-75
2023/07/31 08:36:52;;;;;;;1.33;0.77;;;20.20;24.70;;;;;;5064492;28;20441;-74
2023/07/31 08:39:20;;;;;;;0.70;0.30;;;20.30;26.30;;;;;;5073717;28;20528;-73
2023/07/31 08:41:48;;;;;;;0.70;0.30;;;20.40;24.00;;;;;;5073039;28;20542;-72
2023/07/31 08:44:18;;;;;;;0.70;0.30;;;20.50;23.20;;;;;;5073086;28;20501;-73
2023/07/31 08:46:48;;;;;;;0.70;0.50;;;20.50;21.90;;;;;;5072629;28;20945;-74
2023/07/31 08:49:18;;;;;;;3.73;1.50;;;20.50;20.80;;;;;;5073881;28;20476;-72
2023/07/31 08:51:50;;;;;;;0.60;0.10;;;20.50;22.60;;;;;;5074026;28;20436;-75
2023/07/31 08:54:19;;;;;;;2.77;0.30;;;20.70;22.60;;;;;;5075434;28;20885;-75
2023/07/31 08:56:47;;;;;;;0.60;0.20;;;20.90;21.70;;;;;;5073352;28;20441;-73
2023/07/31 08:59:17;;;;;;;0.70;0.30;;;21.00;19.70;;;;;;5073623;28;20445;-74
2023/07/31 09:01:51;;;;;;;0.80;0.50;;;21.00;19.60;;;;;;5073021;28;20537;-74
2023/07/31 09:04:20;;;;;;;1.63;0.90;;;20.90;18.50;;;;;;5074128;28;20807;-76
2023/07/31 09:06:50;;;;;;;0.60;0.30;;;20.90;18.90;;;;;;5073254;28;20491;-74
2023/07/31 09:09:20;;;;;;;6.83;0.87;;;20.80;20.80;;;;;;5073536;28;20469;-76
2023/07/31 09:11:48;;;;;;;1.10;0.73;;;20.90;20.40;;;;;;5069149;28;20459;-75
2023/07/31 09:14:17;;;;;;;0.60;0.17;;;21.00;20.50;;;;;;5069037;28;20490;-74
2023/07/31 09:16:55;;;;;;;0.73;0.20;;;21.00;21.00;;;;;;5065084;28;20453;-74
2023/07/31 09:19:27;;;;;;;0.60;0.10;;;21.10;16.80;;;;;;5073037;28;20856;-73
2023/07/31 09:21:55;;;;;;;0.60;0.10;;;21.10;18.90;;;;;;5052918;28;20534;-73
2023/07/31 09:24:29;;;;;;;0.60;0.10;;;21.20;18.90;;;;;;5069044;28;20470;-72
2023/07/31 09:26:59;;;;;;;0.77;0.40;;;21.20;12.80;;;;;;5072471;28;20509;-72
2023/07/31 09:29:29;;;;;;;2.67;1.20;;;21.20;11.60;;;;;;5073690;28;20475;-73
2023/07/31 09:31:57;;;;;;;2.00;0.77;;;21.00;11.10;;;;;;5072789;28;20454;-74
2023/07/31 09:34:31;;;;;;;8.40;1.40;;;20.90;15.90;;;;;;5072862;28;20505;-72
2023/07/31 09:37:03;;;;;;;0.60;0.20;;;21.00;14.80;;;;;;5072761;28;20923;-75
2023/07/31 09:39:32;;;;;;;3.47;1.63;;;21.00;17.30;;;;;;5071909;28;20441;-72
2023/07/31 09:42:00;;;;;;;3.03;1.27;;;21.20;15.80;;;;;;5061931;28;20554;-74
2023/07/31 09:44:41;;;;;;;0.80;0.80;;;21.20;12.00;;;;;;5062438;28;20529;-75
2023/07/31 09:47:22;;;;;;;0.70;0.30;;;21.10;11.60;;;;;;5060044;28;20458;-74
2023/07/31 09:49:51;;;;;;;1.77;0.93;;;;;;;;;;5056634;28;20458;-75
2023/07/31 09:52:19;;;;;;;2.80;1.30;;;20.80;17.30;;;;;;5063387;28;20439;-71
2023/07/31 09:54:48;;;;;;;0.60;0.20;;;20.70;24.00;;;;;;5058815;28;20525;-75
2023/07/31 09:57:19;;;;;;;0.80;0.40;;;20.80;29.90;;;;;;5068225;28;20450;-75
2023/07/31 09:59:49;;;;;;;0.60;0.17;;;20.80;32.10;;;;;;5068181;28;20448;-73
2023/07/31 10:02:22;;;;;;;1.87;0.60;;;20.70;24.50;;;;;;5068062;28;20905;-74
2023/07/31 10:04:52;;;;;;;1.47;0.73;;;20.60;21.40;;;;;;5071936;28;20441;-73
2023/07/31 10:07:24;;;;;;;0.60;0.20;;;20.70;29.80;;;;;;5071756;28;20931;-73
2023/07/31 10:09:55;;;;;;;1.13;1.03;;;20.90;20.40;;;;;;5053201;28;20447;-73
2023/07/31 10:12:27;;;;;;;0.60;0.30;;;21.00;16.10;;;;;;5070988;28;20462;-73
2023/07/31 10:14:56;;;;;;;1.40;0.80;;;21.10;13.00;;;;;;5066264;28;20451;-74
2023/07/31 10:17:26;;;;;;;0.60;0.10;;;21.30;14.60;;;;;;5071438;28;20470;-73
2023/07/31 10:19:55;;;;;;;1.73;0.70;;;;;;;;;;5070577;28;20961;-74
2023/07/31 10:22:23;;;;;;;1.00;0.53;;;21.50;11.40;;;;;;5069469;28;20492;-74
2023/07/31 10:24:53;;;;;;;1.37;0.87;;;21.50;11.80;;;;;;5060002;28;20505;-73
2023/07/31 10:27:22;;;;;;;0.90;0.53;;;;;;;;;;5071592;28;20446;-74
2023/07/31 10:29:53;;;;;;;3.10;1.17;;;21.60;6.40;;;;;;5072021;28;20493;-74
2023/07/31 10:32:22;;;;;;;2.67;1.73;;;21.60;5.70;;;;;;5072464;28;20811;-75
2023/07/31 10:34:52;;;;;;;1.10;0.40;;;21.60;5.00;;;;;;5072277;28;20453;-74
2023/07/31 10:37:25;;;;;;;3.00;0.40;;;21.60;4.70;;;;;;5071892;28;20538;-72
2023/07/31 10:39:59;;;;;;;2.13;1.80;;;21.70;3.30;;;;;;5055218;28;20534;-72
2023/07/31 10:42:35;;;;;;;3.07;1.60;;;21.70;1.20;;;;;;5076269;28;20472;-73
2023/07/31 10:45:05;;;;;;;1.90;1.47;;;21.70;1.00;;;;;;5067974;28;20457;-74
2023/07/31 10:47:38;;;;;;;1.73;0.80;;;21.70;1.10;;;;;;5061940;28;20494;-73
2023/07/31 10:50:19;;;;;;;1.20;0.77;;;21.70;1.10;;;;;;5060022;28;20447;-75
2023/07/31 10:52:51;;;;;;;1.37;0.70;;;21.80;2.10;;;;;;5063879;28;20489;-75
2023/07/31 10:55:32;;;;;;;0.93;0.77;;;21.80;10.30;;;;;;5071967;28;20473;-74
2023/07/31 10:58:07;;;;;;;0.60;0.30;;;22.00;1.50;;;;;;5069628;28;20443;-77
2023/07/31 11:00:38;;;;;;;0.70;0.30;;;22.00;1.30;;;;;;5076869;28;20449;-73
2023/07/31 11:03:08;;;;;;;0.77;0.40;;;23.90;2.60;;;;;;5076545;28;20486;-73
2023/07/31 11:05:48;;;;;;;1.53;0.97;;;22.00;1.30;;;;;;5073502;28;20511;-73
2023/07/31 11:08:19;;;;;;;0.80;0.60;;;22.00;9.50;;;;;;5071884;28;20859;-73
2023/07/31 11:10:49;;;;;;;0.70;0.23;;;22.20;1.40;;;;;;5066977;28;20463;-75
2023/07/31 11:13:18;;;;;;;0.83;0.33;;;;;;;;;;5065366;28;20553;-75
2023/07/31 11:15:46;;;;;;;3.80;1.03;;;22.30;1.00;;;;;;5044461;28;20577;-75
2023/07/31 11:18:15;;;;;;;2.30;0.87;;;;;;;;;;5054073;28;20523;-74
2023/07/31 11:20:43;;;;;;;9.00;0.87;;;22.30;1.00;;;;;;5070959;28;20446;-75
2023/07/31 11:23:12;;;;;;;1.47;0.97;;;22.40;1.50;;;;;;5056581;28;20578;-75
2023/07/31 11:25:41;;;;;;;1.77;0.80;;;22.30;1.00;;;;;;5052404;28;20493;-74
2023/07/31 11:28:12;;;;;;;1.20;0.40;;;22.30;1.40;;;;;;5052860;28;20452;-75
2023/07/31 11:30:41;;;;;;;1.57;0.50;;;22.40;1.40;;;;;;5069108;28;20588;-75
2023/07/31 11:33:10;;;;;;;1.40;0.70;;;22.50;1.00;;;;;;5069052;28;20470;-77
2023/07/31 11:35:44;;;;;;;0.97;0.50;;;22.50;1.00;;;;;;5073857;28;20446;-74
2023/07/31 11:38:13;;;;;;;1.90;1.80;;;22.50;7.80;;;;;;5062718;28;20475;-73
2023/07/31 11:40:45;;;;;;;1.00;0.53;;;22.60;7.20;;;;;;5071061;28;20504;-74
2023/07/31 11:43:17;;;;;;;1.50;0.63;;;22.50;1.00;;;;;;5069624;28;20483;-76
2023/07/31 11:45:48;;;;;;;6.40;1.90;;;22.50;1.00;;;;;;5059487;28;20436;-75
2023/07/31 11:48:23;;;;;;;2.30;1.07;;;22.50;1.40;;;;;;5059566;28;20444;-75
2023/07/31 11:50:52;;;;;;;1.87;1.50;;;22.40;1.00;;;;;;5070151;28;20449;-75
2023/07/31 11:53:26;;;;;;;1.10;0.40;;;22.30;1.00;;;;;;5074434;28;20463;-73
2023/07/31 11:55:54;;;;;;;3.13;1.40;;;22.30;1.00;;;;;;5067602;28;20439;-74
2023/07/31 11:58:24;;;;;;;1.00;0.73;;;22.30;1.00;;;;;;5067048;28;20588;-74
2023/07/31 12:00:53;;;;;;;1.50;0.87;;;22.30;1.00;;;;;;5074257;28;20489;-74
2023/07/31 12:03:21;;;;;;;0.60;0.20;;;22.30;1.00;;;;;;5069307;28;20518;-72
2023/07/31 12:05:50;;;;;;;4.47;1.53;;;;;;;;;;5066317;28;20454;-75
2023/07/31 12:08:17;;;;;;;2.87;0.67;;;22.50;1.00;;;;;;5054710;28;20440;-74
2023/07/31 12:10:47;;;;;;;0.90;0.80;;;22.40;1.00;;;;;;5055518;28;20964;-74
2023/07/31 12:13:22;;;;;;;1.40;1.30;;;22.40;1.00;;;;;;5064233;28;20569;-74
2023/07/31 12:15:56;;;;;;;5.47;1.47;;;22.40;1.00;;;;;;5069051;28;20544;-75
2023/07/31 12:18:25;;;;;;;2.97;1.10;;;22.40;1.00;;;;;;5054718;28;20452;-73
2023/07/31 12:20:56;;;;;;;1.67;0.90;;;22.50;1.00;;;;;;5071064;28;20459;-73
2023/07/31 12:23:27;;;;;;;0.80;0.40;;;22.60;1.00;;;;;;5073713;28;20935;-74
2023/07/31 12:26:02;;;;;;;0.80;0.40;;;22.60;5.80;;;;;;5057464;28;20447;-75
2023/07/31 12:28:30;;;;;;;0.70;0.37;;;;;;;;;;5058426;28;20456;-74
2023/07/31 12:31:01;;;;;;;15.20;5.83;;;22.50;1.00;;;;;;5064899;28;20454;-76
2023/07/31 12:33:32;;;;;;;3.10;0.70;;;22.60;1.00;;;;;;5076747;28;20550;-75
2023/07/31 12:36:02;;;;;;;2.83;1.53;;;22.60;1.00;;;;;;5075109;28;20525;-73
2023/07/31 12:38:30;;;;;;;0.97;0.50;;;22.60;1.00;;;;;;5065110;28;20661;-77
2023/07/31 12:40:58;;;;;;;3.27;2.73;;;22.70;1.00;;;;;;5063141;28;20467;-76
2023/07/31 12:43:27;;;;;;;1.77;0.60;;;22.70;1.00;;;;;;5067423;28;20523;-75
2023/07/31 12:45:56;;;;;;;0.97;0.60;;;22.70;1.00;;;;;;5060994;28;20458;-77
2023/07/31 12:48:26;;;;;;;1.27;0.63;;;22.70;1.00;;;;;;5084653;28;20534;-74
2023/07/31 12:50:53;;;;;;;1.30;0.87;;;22.60;1.00;;;;;;5066522;28;20630;-76
2023/07/31 12:53:21;;;;;;;3.33;1.00;;;22.60;1.00;;;;;;5071715;28;20470;-74
2023/07/31 12:55:50;;;;;;;0.80;0.60;;;22.60;1.00;;;;;;5066545;28;20796;-76
2023/07/31 12:58:17;;;;;;;0.80;0.50;;;22.80;1.00;;;;;;5074169;28;20615;-74
2023/07/31 13:00:45;;;;;;;4.43;0.30;;;22.80;4.60;;;;;;5074494;28;20473;-75
2023/07/31 13:03:13;;;;;;;1.10;0.60;;;;;;;;;;5073570;28;20551;-75
2023/07/31 13:05:43;;;;;;;1.83;0.53;;;22.90;1.00;;;;;;5070358;28;20495;-76
2023/07/31 13:08:11;;;;;;;0.70;0.43;;;;;;;;;;5066388;28;20532;-73
2023/07/31 13:10:39;;;;;;;1.37;0.47;;;23.40;1.00;;;;;;5072553;28;20702;-72
2023/07/31 13:13:07;;;;;;;2.30;2.10;;;23.80;1.00;;;;;;5073536;28;20828;-72
2023/07/31 13:15:35;;;;;;;0.77;0.30;;;23.90;1.00;;;;;;5062953;28;20474;-77
2023/07/31 13:18:03;;;;;;;8.10;3.50;;;23.90;2.80;;;;;;5052748;28;20458;-75
2023/07/31 13:20:31;;;;;;;1.37;0.60;;;23.90;1.50;;;;;;5055142;28;20488;-74
2023/07/31 13:23:00;;;;;;;2.70;1.10;;;21.50;1.00;;;;;;5074331;28;20504;-74
2023/07/31 13:25:29;;;;;;;3.90;2.23;;;23.50;1.00;;;;;;5076676;28;20480;-73
2023/07/31 13:27:57;;;;;;;1.93;1.00;;;23.40;1.00;;;;;;5075904;28;20462;-72
2023/07/31 13:30:28;;;;;;;0.60;0.17;;;23.40;1.00;;;;;;5066100;28;20445;-74
2023/07/31 13:32:57;;;;;;;0.70;0.30;;;23.40;1.00;;;;;;5069559;28;21188;-74
2023/07/31 13:35:25;;;;;;;25.27;2.00;;;23.40;1.00;;;;;;5057082;28;20444;-73
2023/07/31 13:37:53;;;;;;;4.03;1.33;;;23.30;1.00;;;;;;5064825;28;20466;-74
2023/07/31 13:40:23;;;;;;;2.30;1.17;;;23.20;1.00;;;;;;5073729;28;20935;-75
2023/07/31 13:42:52;;;;;;;1.13;0.60;;;23.10;1.00;;;;;;5067481;28;20459;-74
2023/07/31 13:45:20;;;;;;;0.70;0.40;;;23.10;1.00;;;;;;5062439;28;20486;-74
2023/07/31 13:47:49;;;;;;;0.80;0.60;;;23.20;1.00;;;;;;5067563;28;20451;-73
2023/07/31 13:50:20;;;;;;;2.80;1.63;;;23.20;1.00;;;;;;5067969;28;20531;-76
2023/07/31 13:52:49;;;;;;;1.10;0.70;;;;;;;;;;5067209;28;20461;-75
2023/07/31 13:55:17;;;;;;;1.10;0.90;;;23.10;1.00;;;;;;5062272;28;20437;-76
2023/07/31 13:57:46;;;;;;;1.67;1.57;;;23.10;1.00;;;;;;5057872;28;20540;-75
2023/07/31 14:00:15;;;;;;;0.93;0.83;;;23.10;1.00;;;;;;5071557;28;21282;-75
2023/07/31 14:02:43;;;;;;;3.73;1.70;;;;;;;;;;5066212;28;20486;-73
2023/07/31 14:05:11;;;;;;;2.80;0.80;;;;;;;;;;5065650;28;20475;-75
2023/07/31 14:07:39;;;;;;;0.60;0.20;;;23.10;1.00;;;;;;5069758;28;20890;-74
2023/07/31 14:10:07;;;;;;;0.97;0.47;;;23.20;1.00;;;;;;5071795;28;20943;-73
2023/07/31 14:12:36;;;;;;;0.70;0.20;;;;;;;;;;5067175;28;20860;-73
2023/07/31 14:15:11;;;;;;;0.90;0.20;;;23.10;1.00;;;;;;5067734;28;20432;-74
2023/07/31 14:17:39;;;;;;;0.70;0.20;;;23.10;1.00;;;;;;5059786;28;20523;-74
2023/07/31 14:20:10;;;;;;;2.00;0.90;;;23.10;4.00;;;;;;5068057;28;20468;-75
2023/07/31 14:22:38;;;;;;;1.07;0.83;;;22.90;1.00;;;;;;5068837;28;20484;-74
2023/07/31 14:25:10;;;;;;;2.63;0.87;;;22.80;1.00;;;;;;5062624;28;20562;-75
2023/07/31 14:27:38;;;;;;;2.30;2.00;;;22.80;2.50;;;;;;5055528;28;21192;-74
2023/07/31 14:30:07;;;;;;;1.90;1.70;;;22.60;2.30;;;;;;5070695;28;20464;-74
2023/07/31 14:32:36;;;;;;;2.90;0.73;;;22.70;1.00;;;;;;5063048;28;20551;-74
2023/07/31 14:35:05;;;;;;;2.30;1.07;;;22.70;1.00;;;;;;5063019;28;20511;-74
2023/07/31 14:37:38;;;;;;;6.53;1.10;;;22.60;1.00;;;;;;5069721;28;20458;-73
2023/07/31 14:40:07;;;;;;;1.00;0.50;;;22.50;3.50;;;;;;5066375;28;21027;-73
2023/07/31 14:42:35;;;;;;;1.63;1.53;;;22.50;1.00;;;;;;5063163;28;21064;-71
2023/07/31 14:45:04;;;;;;;0.90;0.53;;;22.60;6.50;;;;;;5071420;28;20570;-72
2023/07/31 14:47:36;;;;;;;1.90;0.87;;;22.70;1.00;;;;;;5072132;28;20455;-73
2023/07/31 14:50:05;;;;;;;1.43;0.50;;;22.70;1.00;;;;;;5074070;28;20460;-74
2023/07/31 14:52:33;;;;;;;1.83;1.03;;;22.70;1.00;;;;;;5071966;28;20502;-73
2023/07/31 14:55:01;;;;;;;1.67;1.03;;;22.70;1.00;;;;;;5072234;28;20942;-72
2023/07/31 14:57:29;;;;;;;1.53;0.50;;;22.70;1.00;;;;;;5073273;28;20453;-72
2023/07/31 14:59:57;;;;;;;1.47;0.53;;;22.80;1.00;;;;;;5073459;28;20483;-70
2023/07/31 15:02:26;;;;;;;0.80;0.50;;;22.80;1.00;;;;;;5075329;28;20532;-73
2023/07/31 15:04:56;;;;;;;4.90;2.10;;;22.80;1.00;;;;;;5078716;28;21184;-70
2023/07/31 15:07:24;;;;;;;1.40;1.10;;;22.70;1.00;;;;;;5075434;28;20994;-71
2023/07/31 15:09:51;;;;;;;2.13;1.40;;;22.60;1.00;;;;;;5067569;28;20562;-71
2023/07/31 15:12:19;;;;;;;0.60;0.20;;;22.60;1.00;;;;;;5082288;28;20982;-71
2023/07/31 15:14:48;;;;;;;0.60;0.20;;;22.60;8.00;;;;;;5070044;28;20460;-72
2023/07/31 15:17:16;;;;;;;1.47;0.93;;;22.60;1.00;;;;;;5068331;28;20508;-74
2023/07/31 15:19:44;;;;;;;0.80;0.57;;;22.50;1.00;;;;;;5080672;28;20871;-71
2023/07/31 15:22:13;;;;;;;5.43;1.53;;;22.50;1.00;;;;;;5071521;28;20455;-71
2023/07/31 15:24:41;;;;;;;1.63;0.43;;;22.40;7.80;;;;;;5074710;28;20459;-72
2023/07/31 15:27:09;;;;;;;1.00;0.40;;;22.40;1.00;;;;;;5078342;28;20481;-70
2023/07/31 15:29:37;;;;;;;0.67;0.23;;;22.30;1.00;;;;;;5079295;28;20530;-71
2023/07/31 15:32:06;;;;;;;1.07;0.47;;;22.20;1.00;;;;;;5081303;28;20489;-71
2023/07/31 15:34:34;;;;;;;0.77;0.40;;;22.20;1.00;;;;;;5080030;28;20466;-72
2023/07/31 15:37:03;;;;;;;2.53;1.77;;;;;;;;;;5068742;28;20796;-72
2023/07/31 15:39:32;;;;;;;0.60;0.20;;;22.10;1.00;;;;;;5072593;28;20625;-74
2023/07/31 15:42:00;;;;;;;2.83;1.70;;;22.10;1.00;;;;;;5078758;28;20512;-74
2023/07/31 15:44:28;;;;;;;2.33;0.63;;;22.10;1.00;;;;;;5078095;28;20467;-75
2023/07/31 15:46:56;;;;;;;0.60;0.20;;;22.10;1.00;;;;;;5075526;28;20509;-74
2023/07/31 15:49:23;;;;;;;0.60;0.20;;;22.10;1.00;;;;;;5070265;28;20479;-72
2023/07/31 15:51:51;;;;;;;0.60;0.20;;;22.20;1.00;;;;;;5101319;28;20534;-75
2023/07/31 15:54:19;;;;;;;0.70;0.20;;;22.20;1.00;;;;;;5090913;28;20903;-75
2023/07/31 15:56:49;;;;;;;2.60;1.33;;;22.20;1.00;;;;;;5081946;28;20522;-74
2023/07/31 15:59:17;;;;;;;2.73;0.97;;;22.00;1.00;;;;;;5082805;28;20512;-76
2023/07/31 16:01:45;;;;;;;0.87;0.60;;;;;;;;;;5081029;28;20457;-73
2023/07/31 16:04:13;;;;;;;0.80;0.47;;;21.90;1.00;;;;;;5077961;28;20491;-71
2023/07/31 16:06:41;;;;;;;4.40;1.80;;;;;;;;;;5076861;28;21033;-72
2023/07/31 16:09:10;;;;;;;0.60;0.20;;;21.90;1.00;;;;;;5077899;28;20449;-72
2023/07/31 16:11:38;;;;;;;1.73;1.07;;;21.80;1.00;;;;;;5078016;28;20450;-73
2023/07/31 16:14:07;;;;;;;0.70;0.20;;;21.90;1.00;;;;;;5078678;28;20463;-71
2023/07/31 16:16:35;;;;;;;1.43;1.03;;;21.90;5.00;;;;;;5096968;28;20440;-72
2023/07/31 16:19:03;;;;;;;0.80;0.47;;;;;;;;;;5083132;28;20450;-73
2023/07/31 16:21:31;;;;;;;1.13;0.70;;;;;;;;;;5076849;28;20450;-73
2023/07/31 16:24:00;;;;;;;0.80;0.40;;;;;;;;;;5076616;28;20934;-73
2023/07/31 16:26:28;;;;;;;0.87;0.57;;;;;;;;;;5077788;28;20477;-76
2023/07/31 16:28:56;;;;;;;3.80;1.60;;;21.60;1.00;;;;;;5078271;28;20480;-72
2023/07/31 16:31:26;;;;;;;0.60;0.23;;;21.60;1.00;;;;;;5079872;28;20440;-74
2023/07/31 16:33:54;;;;;;;1.73;1.00;;;21.60;1.00;;;;;;5068571;28;20478;-71
2023/07/31 16:36:22;;;;;;;1.60;1.17;;;;;;;;;;5055143;28;20498;-77
2023/07/31 16:38:50;;;;;;;0.60;0.20;;;;;;;;;;5075778;28;20435;-74
2023/07/31 16:41:19;;;;;;;0.77;0.30;;;;;;;;;;5085522;28;20564;-76
2023/07/31 16:43:47;;;;;;;0.70;0.40;;;21.50;1.00;;;;;;5091600;28;20466;-77
2023/07/31 16:46:14;;;;;;;0.70;0.30;;;21.50;1.00;;;;;;5073272;28;20561;-75
2023/07/31 16:48:44;;;;;;;0.70;0.53;;;21.60;2.80;;;;;;5068445;28;20442;-75
2023/07/31 16:51:13;;;;;;;3.63;2.67;;;21.60;1.00;;;;;;5074282;28;20540;-74
2023/07/31 16:53:42;;;;;;;2.53;0.63;;;21.60;1.00;;;;;;5076928;28;20563;-74
2023/07/31 16:56:09;;;;;;;0.70;0.40;;;21.60;1.00;;;;;;5088642;28;20525;-74
2023/07/31 16:58:37;;;;;;;0.83;0.40;;;21.60;1.00;;;;;;5073695;28;20469;-75
2023/07/31 17:01:05;;;;;;;2.60;0.60;;;21.60;9.30;;;;;;5075732;28;20969;-74
2023/07/31 17:03:33;;;;;;;1.33;0.40;;;21.40;1.00;;;;;;5076393;28;20478;-74
2023/07/31 17:06:03;;;;;;;6.07;2.70;;;21.40;9.40;;;;;;5082216;28;20542;-74
2023/07/31 17:08:30;;;;;;;1.00;0.83;;;21.40;9.00;;;;;;5070254;28;20492;-76
2023/07/31 17:10:58;;;;;;;3.43;1.03;;;21.40;5.10;;;;;;5065988;28;20574;-72